الصفحة الرئيسية
METAR-TAF:

METAR-TAF

مطار :

مطار بليز دياغني الدولي

دكار, السنغال

دائرة عرض: 14-40-16N, خط طول: 17-04-01W, ارتفاع: 88 متر

مراقبة الطقس الحالي

تاريخ ووقت الإصدار 25 دقيقة قبل الساعة 16:30UTC
ريح 14 عقدة من الشمال
درجة الحرارة 37°درجة مئوية
الرطوبة 18%
ضغط 1008 hPa
الرؤية: 4800 متر
غبار,

METAR: GOBD 161630Z 35014KT 4800 DU NSC 37/09 Q1008 NOSIG

زمن: 16:55 (16:55 UTC)

توقعات

تاريخ ووقت الإصدار 5ساعات و 55 دقيقة قبل الساعة 11:00UTC
التوقعات صالحة من16 الساعة 12 UTC إلى 17 الساعة 18 UTC
ريح 13 عقدة من الشرق/الشمال الشرقي
الرؤية: 6000 متر
أصبح
من 16 الساعة 18 UTC إلى 16 الساعة 20 UTC
ريح 12 عقدة من الشمال

TAF: GOBD 161100Z 1612/1718 07013KT 6000 NSC BECMG 1618/1620 36012KT

أرصاد الطقس والتوقعات من أكثر من 4000 مطار (تقارير الطقس للمطار METAR والتنبؤ بالطقس بالمطارTAF).

المحطات المتاحة هي النقط الصفراء والحمراء على الخريطة.

حرك المؤشر فوق النقطة لمعرفة اسم المحطة.

ثم انقر لمعرفة أرصاد وتوقعات الطقس.

لتغيير الخارطة: اضغط على الأزرار الخضراء مع رمز الصليب الأسود للتكبير. على الزر الأخضر مع شرطة للتصغير، أو على الأسهم الخضراء للخرائط المجاورة.


METAR-TAF: